Time,TemperatureF,DewpointF,PressureIn,WindDirection,WindDirectionDegrees,WindSpeedMPH,WindSpeedGustMPH,Humidity,HourlyPrecipIn,Conditions,Clouds,dailyrainin,SolarRadiationWatts/m^2,SoftwareType,DateUTC
2013-09-08 00:12:00,68.7,50.0,29.88,WSW,252,0.0,0.0,51,0.00,,,0.00,0,weatherlink.com 1.10,2013-09-08 07:12:00,
2013-09-08 00:27:00,68.2,50.0,29.88,WSW,252,0.0,0.0,52,0.00,,,0.00,0,weatherlink.com 1.10,2013-09-08 07:27:00,
2013-09-08 00:42:00,67.7,50.0,29.88,WSW,252,0.0,0.0,54,0.00,,,0.00,0,weatherlink.com 1.10,2013-09-08 07:42:00,
2013-09-08 00:57:00,67.2,51.0,29.88,WSW,252,0.0,0.0,56,0.00,,,0.00,0,weatherlink.com 1.10,2013-09-08 07:57:00,
2013-09-08 01:12:00,66.8,50.0,29.88,WSW,252,0.0,0.0,56,0.00,,,0.00,0,weatherlink.com 1.10,2013-09-08 08:12:00,
2013-09-08 01:27:00,66.2,51.0,29.88,WSW,252,0.0,0.0,58,0.00,,,0.00,0,weatherlink.com 1.10,2013-09-08 08:27:00,
2013-09-08 01:42:00,65.7,51.0,29.88,WSW,252,0.0,0.0,59,0.00,,,0.00,0,weatherlink.com 1.10,2013-09-08 08:42:00,
2013-09-08 01:57:00,65.3,51.0,29.88,WSW,252,0.0,0.0,60,0.00,,,0.00,0,weatherlink.com 1.10,2013-09-08 08:57:00,
2013-09-08 02:12:00,64.9,51.0,29.88,WSW,252,0.0,0.0,61,0.00,,,0.00,0,weatherlink.com 1.10,2013-09-08 09:12:00,
2013-09-08 02:27:00,64.7,51.0,29.88,WSW,252,0.0,0.0,61,0.00,,,0.00,0,weatherlink.com 1.10,2013-09-08 09:27:00,
2013-09-08 02:42:00,64.4,51.0,29.87,WSW,252,0.0,0.0,62,0.00,,,0.00,0,weatherlink.com 1.10,2013-09-08 09:42:00,
2013-09-08 02:57:00,63.9,51.0,29.87,WSW,252,0.0,0.0,63,0.00,,,0.00,0,weatherlink.com 1.10,2013-09-08 09:57:00,
2013-09-08 03:12:00,63.4,51.0,29.87,WSW,252,0.0,0.0,64,0.00,,,0.00,0,weatherlink.com 1.10,2013-09-08 10:12:00,
2013-09-08 03:27:00,63.1,51.0,29.87,WSW,252,0.0,0.0,65,0.00,,,0.00,0,weatherlink.com 1.10,2013-09-08 10:27:00,
2013-09-08 03:42:00,62.9,51.0,29.87,WSW,252,0.0,0.0,66,0.00,,,0.00,0,weatherlink.com 1.10,2013-09-08 10:42:00,
2013-09-08 03:58:00,62.4,51.0,29.87,WSW,252,0.0,0.0,67,0.00,,,0.00,0,weatherlink.com 1.10,2013-09-08 10:58:00,
2013-09-08 04:13:00,62.2,51.0,29.87,WSW,252,0.0,0.0,67,0.00,,,0.00,0,weatherlink.com 1.10,2013-09-08 11:13:00,
2013-09-08 04:28:00,61.9,51.0,29.88,WSW,252,0.0,0.0,68,0.00,,,0.00,0,weatherlink.com 1.10,2013-09-08 11:28:00,
2013-09-08 04:43:00,61.6,51.0,29.88,WSW,252,0.0,0.0,69,0.00,,,0.00,0,weatherlink.com 1.10,2013-09-08 11:43:00,
2013-09-08 04:58:00,61.3,51.0,29.87,WSW,252,0.0,0.0,70,0.00,,,0.00,0,weatherlink.com 1.10,2013-09-08 11:58:00,
2013-09-08 05:13:00,61.0,52.0,29.87,WSW,252,0.0,0.0,71,0.00,,,0.00,0,weatherlink.com 1.10,2013-09-08 12:13:00,
2013-09-08 05:28:00,60.7,51.0,29.87,WSW,252,0.0,0.0,71,0.00,,,0.00,0,weatherlink.com 1.10,2013-09-08 12:28:00,
2013-09-08 05:43:00,60.4,51.0,29.87,WSW,252,0.0,0.0,71,0.00,,,0.00,0,weatherlink.com 1.10,2013-09-08 12:43:00,
2013-09-08 05:58:00,60.2,51.0,29.88,WSW,252,0.0,0.0,72,0.00,,,0.00,0,weatherlink.com 1.10,2013-09-08 12:58:00,
2013-09-08 06:13:00,59.7,51.0,29.88,WSW,252,0.0,0.0,73,0.00,,,0.00,0,weatherlink.com 1.10,2013-09-08 13:13:00,
2013-09-08 06:28:00,59.3,51.0,29.88,WSW,252,0.0,0.0,73,0.00,,,0.00,0,weatherlink.com 1.10,2013-09-08 13:28:00,
2013-09-08 06:43:00,59.2,51.0,29.88,WSW,252,0.0,0.0,74,0.00,,,0.00,0,weatherlink.com 1.10,2013-09-08 13:43:00,
2013-09-08 06:58:00,59.1,51.0,29.88,WSW,252,0.0,0.0,74,0.00,,,0.00,9,weatherlink.com 1.10,2013-09-08 13:58:00,
2013-09-08 07:13:00,59.0,51.0,29.89,WSW,252,0.0,0.0,74,0.00,,,0.00,14,weatherlink.com 1.10,2013-09-08 14:13:00,
2013-09-08 07:28:00,59.2,51.0,29.89,WSW,252,0.0,0.0,74,0.00,,,0.00,19,weatherlink.com 1.10,2013-09-08 14:28:00,
2013-09-08 07:43:00,60.3,53.0,29.89,WSW,252,0.0,1.0,77,0.00,,,0.00,23,weatherlink.com 1.10,2013-09-08 14:43:00,
2013-09-08 07:58:00,62.1,55.0,29.89,WSW,252,0.0,1.0,77,0.00,,,0.00,30,weatherlink.com 1.10,2013-09-08 14:58:00,
2013-09-08 08:13:00,63.3,55.0,29.89,WSW,252,0.0,0.0,74,0.00,,,0.00,234,weatherlink.com 1.10,2013-09-08 15:13:00,
2013-09-08 08:28:00,65.2,55.0,29.89,WSW,252,0.0,2.0,70,0.00,,,0.00,283,weatherlink.com 1.10,2013-09-08 15:28:00,
2013-09-08 08:43:00,67.4,55.0,29.89,WSW,252,0.0,1.0,64,0.00,,,0.00,338,weatherlink.com 1.10,2013-09-08 15:43:00,
2013-09-08 08:58:00,69.1,54.0,29.89,WSW,252,2.0,3.0,60,0.00,,,0.00,381,weatherlink.com 1.10,2013-09-08 15:58:00,
2013-09-08 09:13:00,69.6,54.0,29.89,WSW,256,2.0,5.0,59,0.00,,,0.00,432,weatherlink.com 1.10,2013-09-08 16:13:00,
2013-09-08 09:28:00,70.9,55.0,29.89,WSW,256,0.0,3.0,57,0.00,,,0.00,480,weatherlink.com 1.10,2013-09-08 16:28:00,
2013-09-08 09:43:00,71.9,55.0,29.89,WSW,256,1.0,3.0,55,0.00,,,0.00,524,weatherlink.com 1.10,2013-09-08 16:43:00,
2013-09-08 09:58:00,73.0,55.0,29.89,WSW,254,0.0,4.0,53,0.00,,,0.00,568,weatherlink.com 1.10,2013-09-08 16:58:00,
2013-09-08 10:13:00,74.7,55.0,29.89,West,277,1.0,4.0,51,0.00,,,0.00,608,weatherlink.com 1.10,2013-09-08 17:13:00,
2013-09-08 10:28:00,77.2,54.0,29.88,West,277,2.0,4.0,44,0.00,,,0.00,645,weatherlink.com 1.10,2013-09-08 17:28:00,
2013-09-08 10:44:00,78.7,55.0,29.88,West,277,0.0,3.0,44,0.00,,,0.00,682,weatherlink.com 1.10,2013-09-08 17:44:00,
2013-09-08 10:59:00,80.1,54.0,29.88,West,277,0.0,3.0,40,0.00,,,0.00,710,weatherlink.com 1.10,2013-09-08 17:59:00,
2013-09-08 11:14:00,81.4,53.0,29.87,West,274,0.0,3.0,37,0.00,,,0.00,740,weatherlink.com 1.10,2013-09-08 18:14:00,
2013-09-08 11:29:00,83.1,53.0,29.87,West,268,1.0,4.0,35,0.00,,,0.00,765,weatherlink.com 1.10,2013-09-08 18:29:00,
2013-09-08 11:44:00,83.9,52.0,29.87,West,264,0.0,5.0,33,0.00,,,0.00,780,weatherlink.com 1.10,2013-09-08 18:44:00,
2013-09-08 11:59:00,86.4,52.0,29.86,West,263,2.0,5.0,31,0.00,,,0.00,796,weatherlink.com 1.10,2013-09-08 18:59:00,
2013-09-08 12:14:00,87.9,52.0,29.86,West,266,2.0,5.0,29,0.00,,,0.00,810,weatherlink.com 1.10,2013-09-08 19:14:00,
2013-09-08 12:29:00,88.5,52.0,29.85,West,267,3.0,5.0,29,0.00,,,0.00,821,weatherlink.com 1.10,2013-09-08 19:29:00,
2013-09-08 12:44:00,89.7,52.0,29.84,West,277,4.0,6.0,28,0.00,,,0.00,823,weatherlink.com 1.10,2013-09-08 19:44:00,
2013-09-08 12:59:00,90.9,53.0,29.84,South,183,2.0,6.0,27,0.00,,,0.00,830,weatherlink.com 1.10,2013-09-08 19:59:00,
2013-09-08 13:14:00,91.1,53.0,29.84,West,260,3.0,6.0,27,0.00,,,0.00,826,weatherlink.com 1.10,2013-09-08 20:14:00,
2013-09-08 13:29:00,92.3,53.0,29.83,West,260,2.0,6.0,26,0.00,,,0.00,819,weatherlink.com 1.10,2013-09-08 20:29:00,
2013-09-08 13:44:00,93.5,52.0,29.83,West,259,2.0,5.0,24,0.00,,,0.00,809,weatherlink.com 1.10,2013-09-08 20:44:00,
2013-09-08 13:59:00,95.2,52.0,29.82,WSW,254,1.0,7.0,23,0.00,,,0.00,795,weatherlink.com 1.10,2013-09-08 20:59:00,
2013-09-08 14:14:00,96.3,53.0,29.82,West,270,1.0,4.0,23,0.00,,,0.00,775,weatherlink.com 1.10,2013-09-08 21:14:00,
2013-09-08 14:29:00,96.1,53.0,29.81,West,259,5.0,5.0,23,0.00,,,0.00,758,weatherlink.com 1.10,2013-09-08 21:29:00,
2013-09-08 14:44:00,97.4,53.0,29.80,West,260,0.0,6.0,22,0.00,,,0.00,729,weatherlink.com 1.10,2013-09-08 21:44:00,
2013-09-08 15:00:00,97.9,51.0,29.80,West,272,3.0,5.0,20,0.00,,,0.00,703,weatherlink.com 1.10,2013-09-08 22:00:00,
2013-09-08 15:15:00,98.0,52.0,29.79,West,259,2.0,6.0,21,0.00,,,0.00,671,weatherlink.com 1.10,2013-09-08 22:15:00,
2013-09-08 15:30:00,98.8,50.0,29.79,West,259,2.0,6.0,19,0.00,,,0.00,638,weatherlink.com 1.10,2013-09-08 22:30:00,
2013-09-08 15:45:00,99.0,53.0,29.78,WSW,257,0.0,4.0,21,0.00,,,0.00,605,weatherlink.com 1.10,2013-09-08 22:45:00,
2013-09-08 16:00:00,98.5,54.0,29.78,WNW,284,2.0,10.0,22,0.00,,,0.00,566,weatherlink.com 1.10,2013-09-08 23:00:00,
2013-09-08 16:15:00,98.3,55.0,29.77,WSW,238,3.0,7.0,23,0.00,,,0.00,524,weatherlink.com 1.10,2013-09-08 23:15:00,
2013-09-08 16:30:00,97.2,55.0,29.77,WSW,253,5.0,10.0,24,0.00,,,0.00,482,weatherlink.com 1.10,2013-09-08 23:30:00,
2013-09-08 16:45:00,96.8,56.0,29.77,SW,231,5.0,10.0,25,0.00,,,0.00,436,weatherlink.com 1.10,2013-09-08 23:45:00,
2013-09-08 17:00:00,96.4,53.0,29.77,West,274,5.0,10.0,23,0.00,,,0.00,392,weatherlink.com 1.10,2013-09-09 00:00:00,
2013-09-08 17:15:00,95.8,55.0,29.77,WSW,248,7.0,10.0,25,0.00,,,0.00,341,weatherlink.com 1.10,2013-09-09 00:15:00,
2013-09-08 17:30:00,95.3,52.0,29.76,West,259,5.0,10.0,23,0.00,,,0.00,299,weatherlink.com 1.10,2013-09-09 00:30:00,
2013-09-08 17:45:00,94.0,53.0,29.77,WSW,250,8.0,10.0,25,0.00,,,0.00,250,weatherlink.com 1.10,2013-09-09 00:45:00,
2013-09-08 18:00:00,93.0,53.0,29.76,West,266,3.0,9.0,26,0.00,,,0.00,202,weatherlink.com 1.10,2013-09-09 01:00:00,
2013-09-08 18:15:00,91.1,51.0,29.77,West,261,8.0,12.0,25,0.00,,,0.00,158,weatherlink.com 1.10,2013-09-09 01:15:00,
2013-09-08 18:30:00,90.6,51.0,29.76,WSW,246,7.0,10.0,26,0.00,,,0.00,105,weatherlink.com 1.10,2013-09-09 01:30:00,
2013-09-08 18:45:00,90.0,51.0,29.76,West,261,5.0,7.0,26,0.00,,,0.00,60,weatherlink.com 1.10,2013-09-09 01:45:00,
2013-09-08 19:00:00,88.1,49.0,29.77,WSW,257,4.0,8.0,26,0.00,,,0.00,23,weatherlink.com 1.10,2013-09-09 02:00:00,
2013-09-08 19:15:00,86.4,50.0,29.77,WSW,245,0.0,6.0,28,0.00,,,0.00,12,weatherlink.com 1.10,2013-09-09 02:15:00,
2013-09-08 19:30:00,85.3,50.0,29.77,WSW,245,0.0,2.0,29,0.00,,,0.00,0,weatherlink.com 1.10,2013-09-09 02:30:00,
2013-09-08 19:45:00,84.4,49.0,29.77,WSW,245,0.0,1.0,29,0.00,,,0.00,0,weatherlink.com 1.10,2013-09-09 02:45:00,
2013-09-08 20:00:00,83.4,50.0,29.77,WSW,245,1.0,1.0,31,0.00,,,0.00,0,weatherlink.com 1.10,2013-09-09 03:00:00,
2013-09-08 20:15:00,82.5,54.0,29.78,WSW,245,0.0,1.0,38,0.00,,,0.00,0,weatherlink.com 1.10,2013-09-09 03:15:00,
2013-09-08 20:30:00,81.6,56.0,29.78,WSW,245,0.0,1.0,41,0.00,,,0.00,0,weatherlink.com 1.10,2013-09-09 03:30:00,
2013-09-08 20:45:00,80.3,55.0,29.78,WSW,245,0.0,1.0,42,0.00,,,0.00,0,weatherlink.com 1.10,2013-09-09 03:45:00,
2013-09-08 21:00:00,79.3,55.0,29.79,WSW,245,0.0,0.0,43,0.00,,,0.00,0,weatherlink.com 1.10,2013-09-09 04:00:00,
2013-09-08 21:15:00,78.4,54.0,29.79,WSW,245,0.0,1.0,43,0.00,,,0.00,0,weatherlink.com 1.10,2013-09-09 04:15:00,
2013-09-08 21:30:00,77.7,53.0,29.80,WSW,245,0.0,0.0,42,0.00,,,0.00,0,weatherlink.com 1.10,2013-09-09 04:30:00,
2013-09-08 21:45:00,77.0,53.0,29.80,WSW,245,0.0,0.0,43,0.00,,,0.00,0,weatherlink.com 1.10,2013-09-09 04:45:00,
2013-09-08 22:00:00,76.1,53.0,29.81,WSW,245,0.0,1.0,44,0.00,,,0.00,0,weatherlink.com 1.10,2013-09-09 05:00:00,
2013-09-08 22:15:00,75.6,51.0,29.81,WSW,245,0.0,2.0,42,0.00,,,0.00,0,weatherlink.com 1.10,2013-09-09 05:15:00,
2013-09-08 22:30:00,75.0,50.0,29.81,WSW,238,0.0,2.0,41,0.00,,,0.00,0,weatherlink.com 1.10,2013-09-09 05:30:00,
2013-09-08 22:45:00,74.3,50.0,29.81,WSW,238,0.0,0.0,43,0.00,,,0.00,0,weatherlink.com 1.10,2013-09-09 05:45:00,
2013-09-08 23:00:00,73.6,50.0,29.81,WSW,238,1.0,1.0,43,0.00,,,0.00,0,weatherlink.com 1.10,2013-09-09 06:00:00,
2013-09-08 23:15:00,73.1,49.0,29.81,WSW,238,0.0,1.0,43,0.00,,,0.00,0,weatherlink.com 1.10,2013-09-09 06:15:00,
2013-09-08 23:30:00,72.5,50.0,29.81,WSW,238,0.0,0.0,46,0.00,,,0.00,0,weatherlink.com 1.10,2013-09-09 06:30:00,
2013-09-08 23:45:00,71.7,50.0,29.81,WSW,238,0.0,1.0,47,0.00,,,0.00,0,weatherlink.com 1.10,2013-09-09 06:45:00,